createdAt,value
2022-09-28T00:05:09.508Z,10.50
2022-09-28T00:22:29.648Z,10.10
2022-09-28T00:27:25.898Z,9.80
2022-09-28T00:34:53.801Z,10.00
2022-09-28T00:42:26.198Z,10.10
2022-09-28T00:44:58.693Z,10.10
2022-09-28T00:47:43.936Z,10.10
2022-09-28T00:54:44.236Z,10.10
2022-09-28T01:04:40.166Z,9.90
2022-09-28T01:07:10.003Z,9.90
2022-09-28T01:09:40.705Z,10.10
2022-09-28T01:12:09.344Z,10.10
2022-09-28T01:17:58.089Z,10.00
2022-09-28T01:20:47.481Z,10.60
2022-09-28T01:23:56.327Z,10.00
2022-09-28T01:26:43.382Z,10.50
2022-09-28T01:29:56.430Z,10.00
2022-09-28T01:32:43.348Z,9.90
2022-09-28T01:38:07.984Z,9.70
2022-09-28T01:40:38.064Z,9.80
2022-09-28T01:43:16.798Z,9.80
2022-09-28T01:45:52.474Z,9.80
2022-09-28T01:48:46.632Z,9.40
2022-09-28T01:51:33.474Z,10.20
2022-09-28T01:54:12.171Z,9.80
2022-09-28T01:56:48.863Z,9.50
2022-09-28T01:59:26.169Z,9.70
2022-09-28T02:02:01.078Z,9.70
2022-09-28T02:07:39.898Z,9.60
2022-09-28T02:10:24.754Z,9.60
2022-09-28T02:13:22.258Z,9.60
2022-09-28T02:16:02.017Z,9.60
2022-09-28T02:21:26.996Z,10.00
2022-09-28T02:24:05.406Z,9.60
2022-09-28T02:26:37.997Z,9.30
2022-09-28T02:34:03.251Z,9.20
2022-09-28T02:36:31.803Z,9.50
2022-09-28T02:41:54.008Z,8.70
2022-09-28T02:44:50.132Z,9.70
2022-09-28T02:47:48.448Z,9.10
2022-09-28T02:50:42.282Z,9.10
2022-09-28T02:53:56.566Z,9.00
2022-09-28T02:57:13.323Z,9.10
2022-09-28T03:00:12.243Z,9.00
2022-09-28T03:05:33.259Z,9.30
2022-09-28T03:08:31.200Z,9.30
2022-09-28T03:11:20.083Z,9.30
2022-09-28T03:13:48.974Z,9.30
2022-09-28T03:16:20.778Z,8.80
2022-09-28T03:18:49.015Z,8.70
2022-09-28T03:21:17.609Z,9.10
2022-09-28T03:23:47.357Z,8.70
2022-09-28T03:26:16.893Z,8.90
2022-09-28T03:28:45.154Z,8.50
2022-09-28T03:31:13.220Z,9.60
2022-09-28T03:33:41.257Z,8.80
2022-09-28T03:43:35.734Z,8.90
2022-09-28T03:46:04.135Z,8.90
2022-09-28T03:48:36.511Z,9.50
2022-09-28T03:51:09.235Z,9.50
2022-09-28T03:56:14.636Z,9.10
2022-09-28T03:58:43.521Z,9.70
2022-09-28T04:01:17.621Z,9.70
2022-09-28T04:03:46.930Z,9.70
2022-09-28T04:06:15.894Z,9.70
2022-09-28T04:08:44.424Z,9.60
2022-09-28T04:13:40.920Z,10.00
2022-09-28T04:18:39.938Z,10.10
2022-09-28T04:21:12.242Z,9.80
2022-09-28T04:23:41.247Z,9.80
2022-09-28T04:26:19.209Z,9.80
2022-09-28T04:29:06.848Z,9.40
2022-09-28T04:31:41.599Z,9.40
2022-09-28T04:34:10.191Z,9.50
2022-09-28T04:39:07.104Z,9.40
2022-09-28T04:41:35.091Z,9.40
2022-09-28T04:44:03.643Z,9.80
2022-09-28T04:49:04.724Z,9.40
2022-09-28T04:51:33.439Z,9.70
2022-09-28T04:56:29.774Z,9.40
2022-09-28T04:58:57.960Z,9.80
2022-09-28T05:11:25.685Z,10.00
2022-09-28T05:13:53.682Z,9.70
2022-09-28T05:16:21.986Z,9.80
2022-09-28T05:23:49.155Z,10.00
2022-09-28T05:33:42.693Z,9.80
2022-09-28T05:36:12.324Z,10.00
2022-09-28T05:38:40.317Z,9.30
2022-09-28T05:41:08.431Z,9.90
2022-09-28T05:43:36.572Z,10.40
2022-09-28T05:51:02.316Z,10.50
2022-09-28T05:56:00.354Z,10.20
2022-09-28T05:58:29.753Z,10.10
2022-09-28T06:00:58.850Z,9.80
2022-09-28T06:03:28.731Z,9.80
2022-09-28T06:10:53.548Z,10.10
2022-09-28T06:13:21.504Z,10.10
2022-09-28T06:18:17.881Z,9.50
2022-09-28T06:20:45.973Z,9.80
2022-09-28T06:23:15.326Z,10.40
2022-09-28T06:25:43.589Z,9.70
2022-09-28T06:28:15.003Z,9.80
2022-09-28T06:30:45.164Z,10.00
2022-09-28T06:33:15.225Z,9.90
2022-09-28T06:38:12.647Z,9.90
2022-09-28T06:43:15.179Z,9.80
2022-09-28T06:45:44.892Z,10.30
2022-09-28T06:50:42.517Z,9.60
2022-09-28T06:53:14.775Z,10.20
2022-09-28T06:55:46.153Z,9.70
2022-09-28T06:58:20.193Z,9.80
2022-09-28T07:00:51.197Z,12.00
2022-09-28T07:03:22.875Z,9.40
2022-09-28T07:05:54.982Z,9.80
2022-09-28T07:08:28.811Z,10.30
2022-09-28T07:13:49.178Z,10.10
2022-09-28T07:21:29.208Z,10.20
2022-09-28T07:23:58.407Z,9.60
2022-09-28T07:31:25.626Z,9.60
2022-09-28T07:38:51.204Z,10.00
2022-09-28T07:44:06.245Z,9.30
2022-09-28T07:46:38.256Z,9.90
2022-09-28T07:59:25.139Z,9.70
2022-09-28T08:09:20.274Z,9.50
2022-09-28T08:19:20.068Z,10.10
2022-09-28T08:21:47.167Z,10.00
2022-09-28T08:24:17.746Z,10.10
2022-09-28T08:26:46.064Z,10.10
2022-09-28T08:29:14.739Z,9.80
2022-09-28T08:34:11.188Z,10.20
2022-09-28T08:36:39.466Z,9.80
2022-09-28T08:39:07.472Z,10.00
2022-09-28T08:42:12.922Z,9.90
2022-09-28T08:44:49.665Z,9.90
2022-09-28T08:47:55.573Z,9.90
2022-09-28T08:50:29.992Z,9.60
2022-09-28T08:53:16.954Z,10.00
2022-09-28T08:55:46.090Z,9.80
2022-09-28T08:58:23.795Z,9.50
2022-09-28T09:00:54.432Z,9.80
2022-09-28T09:03:39.762Z,10.10
2022-09-28T09:09:06.460Z,9.80
2022-09-28T09:12:20.091Z,9.80
2022-09-28T09:15:03.899Z,9.80
2022-09-28T09:18:08.919Z,9.80
2022-09-28T09:20:48.686Z,9.80
2022-09-28T09:23:31.639Z,9.80
2022-09-28T09:26:24.629Z,9.90
2022-09-28T09:29:36.468Z,9.90
2022-09-28T09:35:22.860Z,10.00
2022-09-28T09:40:47.559Z,10.30
2022-09-28T09:43:42.171Z,10.60
2022-09-28T09:47:08.116Z,10.50
2022-09-28T09:50:05.437Z,10.50
2022-09-28T09:53:00.930Z,10.60
2022-09-28T09:55:51.738Z,11.10
2022-09-28T09:58:27.543Z,10.70
2022-09-28T10:01:02.145Z,10.40
2022-09-28T10:03:34.074Z,10.80
2022-09-28T10:06:08.274Z,11.30
2022-09-28T10:08:43.157Z,10.90
2022-09-28T10:11:37.050Z,10.90
2022-09-28T10:14:08.299Z,11.30
2022-09-28T10:16:37.174Z,11.50
2022-09-28T10:26:48.449Z,11.80
2022-09-28T10:29:23.385Z,11.80
2022-09-28T10:31:56.275Z,11.90
2022-09-28T10:34:31.805Z,11.50
2022-09-28T10:37:04.257Z,11.40
2022-09-28T10:39:33.968Z,11.30
2022-09-28T10:42:07.635Z,10.90
2022-09-28T10:44:54.222Z,11.10
2022-09-28T10:47:26.330Z,11.10
2022-09-28T10:49:56.165Z,11.30
2022-09-28T10:52:37.623Z,11.30
2022-09-28T10:55:32.803Z,11.00
2022-09-28T10:58:01.695Z,11.00
2022-09-28T11:00:41.864Z,10.80
2022-09-28T11:03:30.918Z,10.90
2022-09-28T11:06:09.857Z,10.90
2022-09-28T11:08:44.381Z,10.90
2022-09-28T11:11:19.921Z,11.00
2022-09-28T11:13:48.487Z,11.00
2022-09-28T11:16:21.024Z,10.70
2022-09-28T11:18:49.261Z,11.30
2022-09-28T11:21:32.149Z,11.10
2022-09-28T11:24:06.492Z,11.20
2022-09-28T11:26:49.070Z,11.50
2022-09-28T11:29:34.378Z,11.10
2022-09-28T11:32:07.252Z,11.40
2022-09-28T11:34:58.645Z,11.70
2022-09-28T11:38:04.972Z,11.50
2022-09-28T11:43:16.896Z,11.70
2022-09-28T11:46:14.006Z,11.70
2022-09-28T11:49:00.896Z,12.20
2022-09-28T11:51:42.365Z,11.80
2022-09-28T11:54:49.413Z,11.90
2022-09-28T11:57:25.250Z,12.30
2022-09-28T12:00:15.050Z,11.60
2022-09-28T12:03:10.427Z,12.00
2022-09-28T12:06:05.246Z,9.50
2022-09-28T12:08:42.477Z,11.70
2022-09-28T12:11:18.575Z,12.10
2022-09-28T12:13:51.541Z,11.90
2022-09-28T12:17:01.021Z,12.00
2022-09-28T12:20:07.115Z,11.60
2022-09-28T12:22:47.335Z,12.00
2022-09-28T12:25:20.909Z,12.00
2022-09-28T12:28:00.624Z,12.20
2022-09-28T12:30:37.423Z,11.60
2022-09-28T12:33:16.345Z,12.10
2022-09-28T12:35:46.857Z,12.20
2022-09-28T12:38:29.565Z,11.90
2022-09-28T12:41:36.219Z,11.80
2022-09-28T12:44:14.452Z,11.80
2022-09-28T12:46:58.393Z,12.50
2022-09-28T12:50:36.971Z,12.60
2022-09-28T12:53:15.679Z,12.70
2022-09-28T12:56:11.828Z,11.50
2022-09-28T12:59:07.382Z,11.50
2022-09-28T13:02:04.902Z,11.50
2022-09-28T13:07:39.859Z,11.70
2022-09-28T13:10:34.344Z,11.50
2022-09-28T13:13:17.270Z,11.80
2022-09-28T13:16:21.462Z,11.90
2022-09-28T13:19:07.238Z,11.40
2022-09-28T13:21:55.558Z,11.20
2022-09-28T13:24:33.759Z,12.00
2022-09-28T13:27:14.688Z,11.30
2022-09-28T13:29:44.415Z,11.80
2022-09-28T13:32:13.062Z,11.60
2022-09-28T13:37:16.850Z,11.60
2022-09-28T13:39:52.168Z,13.70
2022-09-28T13:43:00.324Z,12.00
2022-09-28T13:45:49.994Z,12.20
2022-09-28T13:48:48.523Z,12.00
2022-09-28T13:51:36.600Z,11.60
2022-09-28T13:54:21.889Z,11.70
2022-09-28T13:57:25.381Z,11.80
2022-09-28T14:00:03.914Z,11.80
2022-09-28T14:02:56.330Z,11.80
2022-09-28T14:08:09.490Z,12.50
2022-09-28T14:10:55.157Z,12.30
2022-09-28T14:13:44.939Z,12.00
2022-09-28T14:16:32.339Z,11.40
2022-09-28T14:19:32.767Z,11.50
2022-09-28T14:22:53.294Z,11.50
2022-09-28T14:25:27.872Z,11.10
2022-09-28T14:28:06.752Z,11.60
2022-09-28T14:30:43.776Z,11.60
2022-09-28T14:33:27.940Z,11.40
2022-09-28T14:36:02.177Z,11.90
2022-09-28T14:38:51.942Z,11.30
2022-09-28T14:41:38.701Z,12.00
2022-09-28T14:44:12.546Z,11.50
2022-09-28T14:46:47.091Z,10.90
2022-09-28T14:49:23.277Z,11.40
2022-09-28T14:51:54.177Z,11.30
2022-09-28T14:54:28.635Z,10.80
2022-09-28T14:57:08.079Z,11.20
2022-09-28T14:59:44.386Z,11.20
2022-09-28T15:04:55.706Z,11.50
2022-09-28T15:07:47.504Z,11.20
2022-09-28T15:10:49.894Z,11.30
2022-09-28T15:13:28.362Z,11.40
2022-09-28T15:16:00.233Z,11.50
2022-09-28T15:19:18.698Z,11.50
2022-09-28T15:21:48.746Z,11.40
2022-09-28T15:24:35.355Z,11.60
2022-09-28T15:27:15.821Z,12.10
2022-09-28T15:30:01.250Z,11.40
2022-09-28T15:32:32.139Z,11.30
2022-09-28T15:35:17.297Z,11.10
2022-09-28T15:40:19.712Z,11.70
2022-09-28T15:48:18.750Z,11.20
2022-09-28T15:51:11.897Z,11.40
2022-09-28T15:53:59.042Z,11.20
2022-09-28T15:56:27.827Z,11.00
2022-09-28T15:59:38.238Z,10.90
2022-09-28T16:02:20.930Z,11.30
2022-09-28T16:05:04.791Z,10.60
2022-09-28T16:07:39.994Z,10.90
2022-09-28T16:10:14.093Z,10.70
2022-09-28T16:15:26.571Z,10.20
2022-09-28T16:18:02.756Z,10.20
2022-09-28T16:20:53.399Z,11.20
2022-09-28T16:23:31.414Z,10.60
2022-09-28T16:26:05.569Z,11.10
2022-09-28T16:28:39.341Z,10.90
2022-09-28T16:31:08.846Z,10.40
2022-09-28T16:33:55.257Z,10.50
2022-09-28T16:36:24.367Z,10.50
2022-09-28T16:38:54.455Z,10.90
2022-09-28T16:41:27.714Z,10.50
2022-09-28T16:44:01.076Z,10.70
2022-09-28T16:46:39.094Z,10.40
2022-09-28T16:49:08.383Z,10.00
2022-09-28T16:51:40.106Z,10.10
2022-09-28T16:54:43.546Z,10.00
2022-09-28T16:57:14.562Z,10.30
2022-09-28T16:59:42.706Z,10.70
2022-09-28T17:02:45.634Z,10.40
2022-09-28T17:05:16.228Z,10.20
2022-09-28T17:07:45.978Z,10.60
2022-09-28T17:10:41.195Z,10.50
2022-09-28T17:13:31.508Z,10.60
2022-09-28T17:21:07.762Z,10.70
2022-09-28T17:28:36.510Z,10.80
2022-09-28T17:31:05.905Z,10.90
2022-09-28T17:33:33.966Z,10.90
2022-09-28T17:36:04.777Z,10.90
2022-09-28T17:41:02.727Z,10.70
2022-09-28T17:58:23.933Z,10.60
2022-09-28T18:00:53.149Z,10.60
2022-09-28T18:03:25.475Z,10.60
2022-09-28T18:06:07.842Z,10.50
2022-09-28T18:35:56.655Z,10.20
2022-09-28T19:06:16.958Z,9.80
2022-09-28T19:11:17.021Z,9.70
2022-09-28T19:16:22.697Z,9.30
2022-09-28T19:26:31.730Z,9.40
2022-09-28T19:29:01.306Z,9.40
2022-09-28T19:31:30.941Z,10.00
2022-09-28T19:36:29.323Z,9.40
2022-09-28T19:39:02.937Z,9.40
2022-09-28T19:41:44.551Z,9.40
2022-09-28T19:44:27.307Z,9.40
2022-09-28T19:47:04.349Z,9.30
2022-09-28T19:52:17.982Z,9.30
2022-09-28T19:54:59.300Z,9.30
2022-09-28T19:57:31.002Z,9.30
2022-09-28T20:22:34.197Z,9.50
2022-09-28T20:32:35.303Z,9.40
2022-09-28T21:04:52.106Z,8.60
2022-09-28T22:29:10.886Z,8.30
2022-09-28T22:31:41.602Z,8.40
2022-09-28T22:34:10.627Z,8.40
2022-09-28T22:51:32.136Z,8.60
2022-09-28T23:01:30.712Z,8.70
2022-09-28T23:03:59.714Z,8.80
2022-09-28T23:06:30.400Z,8.80
2022-09-28T23:13:59.539Z,8.90
2022-09-28T23:16:28.470Z,8.90
2022-09-28T23:18:57.811Z,8.90
2022-09-28T23:21:29.327Z,9.00
2022-09-28T23:24:01.078Z,9.10
2022-09-28T23:26:32.292Z,9.10
2022-09-28T23:29:01.474Z,9.10
2022-09-28T23:31:32.498Z,9.10
2022-09-28T23:34:07.059Z,9.10
